Frenchglen, OR

5:52 AM PDT on July 29, 2016 (GMT -0700)
Burns Municipal | | Change Station

Elev 4170 ft 43.60 °N, 118.96 °W | Updated 59 minutes ago

Clear
Clear
58 °F
Feels Like 58 °F
N
7
Wind Variable Wind from West

Today
High -- | Low -- °F
--% Chance of Precip.
Yesterday
High -- | Low -- °F
Precip. -- in
Pressure 29.96 in
Visibility 10.0 miles
Clouds Clear
Dew Point 41 °F
Humidity 53%
Rainfall 0.00 in
Snow Depth Not available.
5:44 AM 8:19 PM
Waning Crescent, 22% visible
METAR KBNO 291153Z AUTO 26006KT 10SM CLR 14/05 A3010 RMK AO2 SLP146 T01440050 10239 20133 56001 TSNO
Pressure 29.96 in
Visibility 10.0 miles
Clouds Clear
Dew Point 41 °F
Humidity 53%
Rainfall 0.00 in
Snow Depth Not available.
5:44 AM 8:19 PM
Waning Crescent, 22% visible
METAR KBNO 291153Z AUTO 26006KT 10SM CLR 14/05 A3010 RMK AO2 SLP146 T01440050 10239 20133 56001 TSNO

10-Day Weather Forecast

Almanac

Astronomy

Jul. 29, 2016 Rise Set
Actual Time
Civil Twilight
Nautical Twilight
Astronomical Twilight
Moon
Length of Visible Light
Length of Day
Tomorrow will be .
, % of the Moon is Illuminated

Today's Extremes

State Highs State Lows

Community

WunderPhotos

Upload Photos

1,928,335 photos uploaded!

WunderBlog® & News

Nearby

Air Quality

  Air Quality AQ Index Pollutant
Not available.

Snow Depth

Station Depth Elevation

Earthquake Activity

City Distance Mag. Time & Date
Minimum magnitude displayed is 2.5.

Coastal Water Temperatures

Place Temperature

Stations

Nearby Weather Stations

Station Location Temp. Windchill Dew Point Humidity Wind Precip. Elev Updated Type
                   

Watches & Warnings

There are currently no watches in effect.